sensor_id;sensor_type;location;lat;lon;timestamp;P1;durP1;ratioP1;P2;durP2;ratioP2
16346;SDS011;8283;48.504;13.734;2023-05-23T00:00:56;7.13;;;3.95;;
16346;SDS011;8283;48.504;13.734;2023-05-23T00:03:41;4.97;;;4.47;;
16346;SDS011;8283;48.504;13.734;2023-05-23T00:06:25;4.45;;;3.50;;
16346;SDS011;8283;48.504;13.734;2023-05-23T00:09:10;4.95;;;4.30;;
16346;SDS011;8283;48.504;13.734;2023-05-23T00:11:54;4.45;;;3.95;;
16346;SDS011;8283;48.504;13.734;2023-05-23T00:14:39;5.15;;;4.10;;
16346;SDS011;8283;48.504;13.734;2023-05-23T00:17:23;4.40;;;3.90;;
16346;SDS011;8283;48.504;13.734;2023-05-23T00:20:11;3.45;;;3.15;;
16346;SDS011;8283;48.504;13.734;2023-05-23T00:22:56;5.82;;;4.15;;
16346;SDS011;8283;48.504;13.734;2023-05-23T00:25:41;4.43;;;3.67;;
16346;SDS011;8283;48.504;13.734;2023-05-23T00:28:31;5.85;;;3.75;;
16346;SDS011;8283;48.504;13.734;2023-05-23T00:31:15;5.70;;;3.95;;
16346;SDS011;8283;48.504;13.734;2023-05-23T00:34:00;4.35;;;3.47;;
16346;SDS011;8283;48.504;13.734;2023-05-23T00:36:45;4.70;;;3.78;;
16346;SDS011;8283;48.504;13.734;2023-05-23T00:39:33;4.60;;;3.55;;
16346;SDS011;8283;48.504;13.734;2023-05-23T00:42:17;5.22;;;3.80;;
16346;SDS011;8283;48.504;13.734;2023-05-23T00:45:01;3.60;;;3.15;;
16346;SDS011;8283;48.504;13.734;2023-05-23T00:47:45;5.43;;;4.10;;
16346;SDS011;8283;48.504;13.734;2023-05-23T00:50:31;5.32;;;4.15;;
16346;SDS011;8283;48.504;13.734;2023-05-23T00:53:16;4.75;;;3.90;;
16346;SDS011;8283;48.504;13.734;2023-05-23T00:56:01;4.18;;;3.78;;
16346;SDS011;8283;48.504;13.734;2023-05-23T00:58:46;5.15;;;3.63;;
16346;SDS011;8283;48.504;13.734;2023-05-23T01:01:31;4.22;;;3.55;;
16346;SDS011;8283;48.504;13.734;2023-05-23T01:04:16;5.65;;;4.53;;
16346;SDS011;8283;48.504;13.734;2023-05-23T01:07:00;5.65;;;4.22;;
16346;SDS011;8283;48.504;13.734;2023-05-23T01:09:45;4.72;;;3.65;;
16346;SDS011;8283;48.504;13.734;2023-05-23T01:12:36;4.68;;;4.10;;
16346;SDS011;8283;48.504;13.734;2023-05-23T01:18:46;5.30;;;3.63;;
16346;SDS011;8283;48.504;13.734;2023-05-23T01:21:41;3.63;;;3.33;;
16346;SDS011;8283;48.504;13.734;2023-05-23T01:24:44;5.82;;;4.68;;
16346;SDS011;8283;48.504;13.734;2023-05-23T01:27:54;5.45;;;4.55;;
16346;SDS011;8283;48.504;13.734;2023-05-23T01:30:43;6.45;;;4.07;;
16346;SDS011;8283;48.504;13.734;2023-05-23T01:33:28;3.55;;;3.25;;
16346;SDS011;8283;48.504;13.734;2023-05-23T01:36:15;4.88;;;3.85;;
16346;SDS011;8283;48.504;13.734;2023-05-23T01:39:00;3.58;;;3.13;;
16346;SDS011;8283;48.504;13.734;2023-05-23T01:41:45;4.78;;;3.42;;
16346;SDS011;8283;48.504;13.734;2023-05-23T01:44:30;4.10;;;3.35;;
16346;SDS011;8283;48.504;13.734;2023-05-23T01:47:16;3.30;;;2.92;;
16346;SDS011;8283;48.504;13.734;2023-05-23T01:50:02;3.70;;;3.10;;
16346;SDS011;8283;48.504;13.734;2023-05-23T01:52:47;3.28;;;2.97;;
16346;SDS011;8283;48.504;13.734;2023-05-23T01:55:32;7.00;;;4.00;;
16346;SDS011;8283;48.504;13.734;2023-05-23T01:58:17;4.53;;;4.05;;
16346;SDS011;8283;48.504;13.734;2023-05-23T02:01:02;4.95;;;3.35;;
16346;SDS011;8283;48.504;13.734;2023-05-23T02:03:48;4.57;;;3.55;;
16346;SDS011;8283;48.504;13.734;2023-05-23T02:06:32;3.78;;;3.40;;
16346;SDS011;8283;48.504;13.734;2023-05-23T02:09:16;3.97;;;3.58;;
16346;SDS011;8283;48.504;13.734;2023-05-23T02:12:02;3.92;;;3.28;;
16346;SDS011;8283;48.504;13.734;2023-05-23T02:14:48;4.75;;;4.07;;
16346;SDS011;8283;48.504;13.734;2023-05-23T02:17:34;6.45;;;4.30;;
16346;SDS011;8283;48.504;13.734;2023-05-23T02:20:19;3.80;;;3.50;;
16346;SDS011;8283;48.504;13.734;2023-05-23T02:23:05;4.95;;;4.03;;
16346;SDS011;8283;48.504;13.734;2023-05-23T02:25:49;4.57;;;3.95;;
16346;SDS011;8283;48.504;13.734;2023-05-23T02:28:33;4.07;;;3.42;;
16346;SDS011;8283;48.504;13.734;2023-05-23T02:31:18;4.57;;;3.70;;
16346;SDS011;8283;48.504;13.734;2023-05-23T02:34:02;4.32;;;3.90;;
16346;SDS011;8283;48.504;13.734;2023-05-23T02:36:47;5.70;;;3.63;;
16346;SDS011;8283;48.504;13.734;2023-05-23T02:39:31;5.15;;;4.50;;
16346;SDS011;8283;48.504;13.734;2023-05-23T02:42:17;4.03;;;3.65;;
16346;SDS011;8283;48.504;13.734;2023-05-23T02:45:02;4.07;;;3.38;;
16346;SDS011;8283;48.504;13.734;2023-05-23T02:47:46;7.60;;;3.60;;
16346;SDS011;8283;48.504;13.734;2023-05-23T02:50:30;4.00;;;3.60;;
16346;SDS011;8283;48.504;13.734;2023-05-23T02:53:15;4.18;;;3.78;;
16346;SDS011;8283;48.504;13.734;2023-05-23T02:55:59;3.15;;;2.85;;
16346;SDS011;8283;48.504;13.734;2023-05-23T02:58:43;5.10;;;4.25;;
16346;SDS011;8283;48.504;13.734;2023-05-23T03:01:28;5.07;;;4.38;;
16346;SDS011;8283;48.504;13.734;2023-05-23T03:04:12;4.75;;;3.70;;
16346;SDS011;8283;48.504;13.734;2023-05-23T03:06:56;6.15;;;3.28;;
16346;SDS011;8283;48.504;13.734;2023-05-23T03:09:42;5.28;;;3.97;;
16346;SDS011;8283;48.504;13.734;2023-05-23T03:12:27;6.13;;;3.88;;
16346;SDS011;8283;48.504;13.734;2023-05-23T03:15:12;4.35;;;3.95;;
16346;SDS011;8283;48.504;13.734;2023-05-23T03:17:58;4.75;;;3.60;;
16346;SDS011;8283;48.504;13.734;2023-05-23T03:20:43;4.88;;;3.85;;
16346;SDS011;8283;48.504;13.734;2023-05-23T03:23:28;4.40;;;4.00;;
16346;SDS011;8283;48.504;13.734;2023-05-23T03:26:12;5.50;;;3.78;;
16346;SDS011;8283;48.504;13.734;2023-05-23T03:28:56;4.05;;;3.53;;
16346;SDS011;8283;48.504;13.734;2023-05-23T03:31:41;5.82;;;4.55;;
16346;SDS011;8283;48.504;13.734;2023-05-23T03:34:25;5.05;;;4.15;;
16346;SDS011;8283;48.504;13.734;2023-05-23T03:37:10;4.32;;;3.72;;
16346;SDS011;8283;48.504;13.734;2023-05-23T03:39:54;5.40;;;3.95;;
16346;SDS011;8283;48.504;13.734;2023-05-23T03:42:38;6.53;;;4.00;;
16346;SDS011;8283;48.504;13.734;2023-05-23T03:45:23;5.40;;;3.58;;
16346;SDS011;8283;48.504;13.734;2023-05-23T03:48:09;5.25;;;4.05;;
16346;SDS011;8283;48.504;13.734;2023-05-23T03:50:54;4.60;;;4.05;;
16346;SDS011;8283;48.504;13.734;2023-05-23T03:53:38;4.22;;;3.78;;
16346;SDS011;8283;48.504;13.734;2023-05-23T03:56:23;4.70;;;4.10;;
16346;SDS011;8283;48.504;13.734;2023-05-23T03:59:09;4.20;;;3.72;;
16346;SDS011;8283;48.504;13.734;2023-05-23T04:01:54;4.95;;;4.05;;
16346;SDS011;8283;48.504;13.734;2023-05-23T04:04:42;4.18;;;3.83;;
16346;SDS011;8283;48.504;13.734;2023-05-23T04:07:27;4.07;;;3.67;;
16346;SDS011;8283;48.504;13.734;2023-05-23T04:10:11;4.47;;;4.03;;
16346;SDS011;8283;48.504;13.734;2023-05-23T04:12:57;4.88;;;4.38;;
16346;SDS011;8283;48.504;13.734;2023-05-23T04:15:42;7.13;;;4.15;;
16346;SDS011;8283;48.504;13.734;2023-05-23T04:18:28;6.90;;;4.53;;
16346;SDS011;8283;48.504;13.734;2023-05-23T04:21:13;7.60;;;4.05;;
16346;SDS011;8283;48.504;13.734;2023-05-23T04:24:07;3.78;;;3.47;;
16346;SDS011;8283;48.504;13.734;2023-05-23T04:26:51;7.55;;;3.78;;
16346;SDS011;8283;48.504;13.734;2023-05-23T04:29:39;7.10;;;4.30;;
16346;SDS011;8283;48.504;13.734;2023-05-23T04:32:23;8.48;;;4.32;;
16346;SDS011;8283;48.504;13.734;2023-05-23T04:35:09;6.45;;;4.15;;
16346;SDS011;8283;48.504;13.734;2023-05-23T04:37:56;5.03;;;4.53;;
16346;SDS011;8283;48.504;13.734;2023-05-23T04:40:43;5.35;;;4.22;;
16346;SDS011;8283;48.504;13.734;2023-05-23T04:43:47;6.88;;;3.90;;
16346;SDS011;8283;48.504;13.734;2023-05-23T04:46:54;5.18;;;3.88;;
16346;SDS011;8283;48.504;13.734;2023-05-23T04:49:44;4.90;;;4.40;;
16346;SDS011;8283;48.504;13.734;2023-05-23T04:52:29;6.28;;;4.10;;
16346;SDS011;8283;48.504;13.734;2023-05-23T04:55:16;5.05;;;4.55;;
16346;SDS011;8283;48.504;13.734;2023-05-23T04:58:01;6.30;;;4.07;;
16346;SDS011;8283;48.504;13.734;2023-05-23T05:00:46;6.50;;;4.78;;
16346;SDS011;8283;48.504;13.734;2023-05-23T05:03:32;4.75;;;4.07;;
16346;SDS011;8283;48.504;13.734;2023-05-23T05:06:17;5.55;;;5.05;;
16346;SDS011;8283;48.504;13.734;2023-05-23T05:09:04;4.43;;;4.03;;
16346;SDS011;8283;48.504;13.734;2023-05-23T05:11:49;7.75;;;4.30;;
16346;SDS011;8283;48.504;13.734;2023-05-23T05:14:33;5.65;;;4.13;;
16346;SDS011;8283;48.504;13.734;2023-05-23T05:17:19;5.13;;;3.85;;
16346;SDS011;8283;48.504;13.734;2023-05-23T05:20:18;6.22;;;4.38;;
16346;SDS011;8283;48.504;13.734;2023-05-23T05:23:04;5.18;;;3.97;;
16346;SDS011;8283;48.504;13.734;2023-05-23T05:25:49;7.43;;;4.40;;
16346;SDS011;8283;48.504;13.734;2023-05-23T05:28:34;4.38;;;3.97;;
16346;SDS011;8283;48.504;13.734;2023-05-23T05:31:19;4.63;;;3.85;;
16346;SDS011;8283;48.504;13.734;2023-05-23T05:34:04;5.05;;;4.18;;
16346;SDS011;8283;48.504;13.734;2023-05-23T05:36:49;6.25;;;3.95;;
16346;SDS011;8283;48.504;13.734;2023-05-23T05:39:38;4.95;;;4.22;;
16346;SDS011;8283;48.504;13.734;2023-05-23T05:42:23;5.05;;;4.00;;
16346;SDS011;8283;48.504;13.734;2023-05-23T05:45:08;5.13;;;4.63;;
16346;SDS011;8283;48.504;13.734;2023-05-23T05:47:55;5.65;;;4.55;;
16346;SDS011;8283;48.504;13.734;2023-05-23T05:50:41;5.13;;;4.20;;
16346;SDS011;8283;48.504;13.734;2023-05-23T05:53:28;5.20;;;4.00;;
16346;SDS011;8283;48.504;13.734;2023-05-23T05:56:12;4.20;;;3.80;;
16346;SDS011;8283;48.504;13.734;2023-05-23T05:58:57;4.57;;;4.10;;
16346;SDS011;8283;48.504;13.734;2023-05-23T06:01:41;5.00;;;4.50;;
16346;SDS011;8283;48.504;13.734;2023-05-23T06:04:28;5.18;;;4.35;;
16346;SDS011;8283;48.504;13.734;2023-05-23T06:07:15;7.60;;;4.68;;
16346;SDS011;8283;48.504;13.734;2023-05-23T06:09:59;5.50;;;3.83;;
16346;SDS011;8283;48.504;13.734;2023-05-23T06:12:44;5.30;;;4.30;;
16346;SDS011;8283;48.504;13.734;2023-05-23T06:15:28;5.00;;;4.50;;
16346;SDS011;8283;48.504;13.734;2023-05-23T06:18:13;6.00;;;4.60;;
16346;SDS011;8283;48.504;13.734;2023-05-23T06:20:57;5.45;;;4.63;;
16346;SDS011;8283;48.504;13.734;2023-05-23T06:23:43;5.20;;;4.43;;
16346;SDS011;8283;48.504;13.734;2023-05-23T06:26:28;5.22;;;4.72;;
16346;SDS011;8283;48.504;13.734;2023-05-23T06:29:12;4.60;;;4.20;;
16346;SDS011;8283;48.504;13.734;2023-05-23T06:31:56;5.63;;;4.43;;
16346;SDS011;8283;48.504;13.734;2023-05-23T06:34:42;5.97;;;4.72;;
16346;SDS011;8283;48.504;13.734;2023-05-23T06:37:26;5.65;;;4.53;;
16346;SDS011;8283;48.504;13.734;2023-05-23T06:40:10;5.07;;;4.28;;
16346;SDS011;8283;48.504;13.734;2023-05-23T06:42:57;5.15;;;4.25;;
16346;SDS011;8283;48.504;13.734;2023-05-23T06:45:55;5.25;;;4.70;;
16346;SDS011;8283;48.504;13.734;2023-05-23T06:48:39;4.65;;;4.18;;
16346;SDS011;8283;48.504;13.734;2023-05-23T06:51:23;4.68;;;4.18;;
16346;SDS011;8283;48.504;13.734;2023-05-23T06:54:07;4.47;;;4.07;;
16346;SDS011;8283;48.504;13.734;2023-05-23T06:56:53;4.38;;;3.88;;
16346;SDS011;8283;48.504;13.734;2023-05-23T06:59:37;5.18;;;4.68;;
16346;SDS011;8283;48.504;13.734;2023-05-23T07:02:22;4.72;;;4.05;;
16346;SDS011;8283;48.504;13.734;2023-05-23T07:05:07;5.03;;;4.28;;
16346;SDS011;8283;48.504;13.734;2023-05-23T07:08:03;4.03;;;3.63;;
16346;SDS011;8283;48.504;13.734;2023-05-23T07:10:48;4.55;;;3.95;;
16346;SDS011;8283;48.504;13.734;2023-05-23T07:13:43;4.38;;;3.97;;
16346;SDS011;8283;48.504;13.734;2023-05-23T07:16:35;4.47;;;4.07;;
16346;SDS011;8283;48.504;13.734;2023-05-23T07:19:23;5.50;;;5.00;;
16346;SDS011;8283;48.504;13.734;2023-05-23T07:22:09;8.23;;;5.20;;
16346;SDS011;8283;48.504;13.734;2023-05-23T07:24:57;6.30;;;5.28;;
16346;SDS011;8283;48.504;13.734;2023-05-23T07:27:46;6.22;;;5.63;;
16346;SDS011;8283;48.504;13.734;2023-05-23T07:30:31;6.68;;;5.07;;
16346;SDS011;8283;48.504;13.734;2023-05-23T07:33:17;9.52;;;5.93;;
16346;SDS011;8283;48.504;13.734;2023-05-23T07:36:03;7.20;;;6.20;;
16346;SDS011;8283;48.504;13.734;2023-05-23T07:38:47;6.28;;;5.68;;
16346;SDS011;8283;48.504;13.734;2023-05-23T07:41:31;7.07;;;6.38;;
16346;SDS011;8283;48.504;13.734;2023-05-23T07:44:17;7.85;;;6.25;;
16346;SDS011;8283;48.504;13.734;2023-05-23T07:47:02;6.53;;;5.82;;
16346;SDS011;8283;48.504;13.734;2023-05-23T07:49:47;7.07;;;6.38;;
16346;SDS011;8283;48.504;13.734;2023-05-23T07:52:32;8.35;;;7.53;;
16346;SDS011;8283;48.504;13.734;2023-05-23T07:55:20;8.57;;;7.30;;
16346;SDS011;8283;48.504;13.734;2023-05-23T07:58:05;8.43;;;7.63;;
16346;SDS011;8283;48.504;13.734;2023-05-23T08:00:50;8.30;;;7.60;;
16346;SDS011;8283;48.504;13.734;2023-05-23T08:03:54;8.57;;;7.68;;
16346;SDS011;8283;48.504;13.734;2023-05-23T08:06:46;10.15;;;8.60;;
16346;SDS011;8283;48.504;13.734;2023-05-23T08:09:31;10.05;;;9.02;;
16346;SDS011;8283;48.504;13.734;2023-05-23T08:12:15;16.60;;;10.18;;
16346;SDS011;8283;48.504;13.734;2023-05-23T08:15:01;12.45;;;11.23;;
16346;SDS011;8283;48.504;13.734;2023-05-23T08:17:50;8.77;;;7.95;;
16346;SDS011;8283;48.504;13.734;2023-05-23T08:20:35;9.68;;;8.75;;
16346;SDS011;8283;48.504;13.734;2023-05-23T08:23:19;8.48;;;7.60;;
16346;SDS011;8283;48.504;13.734;2023-05-23T08:26:04;11.10;;;9.30;;
16346;SDS011;8283;48.504;13.734;2023-05-23T08:28:51;11.13;;;8.82;;
16346;SDS011;8283;48.504;13.734;2023-05-23T08:31:36;11.75;;;8.85;;
16346;SDS011;8283;48.504;13.734;2023-05-23T08:34:21;9.05;;;8.25;;
16346;SDS011;8283;48.504;13.734;2023-05-23T08:37:06;10.15;;;8.80;;
16346;SDS011;8283;48.504;13.734;2023-05-23T08:39:51;9.50;;;8.57;;
16346;SDS011;8283;48.504;13.734;2023-05-23T08:42:58;11.35;;;10.30;;
16346;SDS011;8283;48.504;13.734;2023-05-23T08:45:44;9.35;;;8.45;;
16346;SDS011;8283;48.504;13.734;2023-05-23T08:48:29;10.57;;;8.45;;
16346;SDS011;8283;48.504;13.734;2023-05-23T08:51:15;13.38;;;10.13;;
16346;SDS011;8283;48.504;13.734;2023-05-23T08:54:03;9.25;;;8.35;;
16346;SDS011;8283;48.504;13.734;2023-05-23T08:56:50;51.00;;;18.42;;
16346;SDS011;8283;48.504;13.734;2023-05-23T08:59:35;11.55;;;9.27;;
16346;SDS011;8283;48.504;13.734;2023-05-23T09:02:21;15.52;;;10.25;;
16346;SDS011;8283;48.504;13.734;2023-05-23T09:05:07;11.45;;;9.52;;
16346;SDS011;8283;48.504;13.734;2023-05-23T09:07:52;9.38;;;8.40;;
16346;SDS011;8283;48.504;13.734;2023-05-23T09:10:38;10.45;;;7.78;;
16346;SDS011;8283;48.504;13.734;2023-05-23T09:13:24;7.97;;;7.18;;
16346;SDS011;8283;48.504;13.734;2023-05-23T09:16:11;7.93;;;7.22;;
16346;SDS011;8283;48.504;13.734;2023-05-23T09:19:17;7.03;;;6.43;;
16346;SDS011;8283;48.504;13.734;2023-05-23T09:22:08;8.40;;;7.60;;
16346;SDS011;8283;48.504;13.734;2023-05-23T09:25:03;9.02;;;8.23;;
16346;SDS011;8283;48.504;13.734;2023-05-23T09:27:50;8.55;;;7.05;;
16346;SDS011;8283;48.504;13.734;2023-05-23T09:30:37;17.45;;;7.72;;
16346;SDS011;8283;48.504;13.734;2023-05-23T09:33:22;14.23;;;8.82;;
16346;SDS011;8283;48.504;13.734;2023-05-23T09:36:07;7.60;;;6.80;;
16346;SDS011;8283;48.504;13.734;2023-05-23T09:38:51;8.60;;;7.75;;
16346;SDS011;8283;48.504;13.734;2023-05-23T09:41:36;7.90;;;7.20;;
16346;SDS011;8283;48.504;13.734;2023-05-23T09:44:21;7.25;;;6.55;;
16346;SDS011;8283;48.504;13.734;2023-05-23T09:47:07;6.90;;;6.30;;
16346;SDS011;8283;48.504;13.734;2023-05-23T09:49:51;7.10;;;6.25;;
16346;SDS011;8283;48.504;13.734;2023-05-23T09:52:37;6.72;;;6.00;;
16346;SDS011;8283;48.504;13.734;2023-05-23T09:55:21;7.38;;;6.68;;
16346;SDS011;8283;48.504;13.734;2023-05-23T09:58:06;7.53;;;6.72;;
16346;SDS011;8283;48.504;13.734;2023-05-23T10:00:51;7.20;;;6.60;;
16346;SDS011;8283;48.504;13.734;2023-05-23T10:03:48;8.10;;;6.53;;
16346;SDS011;8283;48.504;13.734;2023-05-23T10:06:40;7.72;;;6.05;;
16346;SDS011;8283;48.504;13.734;2023-05-23T10:09:27;7.60;;;6.90;;
16346;SDS011;8283;48.504;13.734;2023-05-23T10:15:34;8.20;;;7.47;;
16346;SDS011;8283;48.504;13.734;2023-05-23T10:18:22;7.97;;;7.00;;
16346;SDS011;8283;48.504;13.734;2023-05-23T10:21:12;7.28;;;5.80;;
16346;SDS011;8283;48.504;13.734;2023-05-23T10:24:04;6.53;;;5.93;;
16346;SDS011;8283;48.504;13.734;2023-05-23T10:26:51;6.13;;;5.60;;
16346;SDS011;8283;48.504;13.734;2023-05-23T10:29:37;7.07;;;5.18;;
16346;SDS011;8283;48.504;13.734;2023-05-23T10:32:21;5.78;;;5.00;;
16346;SDS011;8283;48.504;13.734;2023-05-23T10:35:09;5.85;;;4.43;;
16346;SDS011;8283;48.504;13.734;2023-05-23T10:41:12;5.35;;;4.95;;
16346;SDS011;8283;48.504;13.734;2023-05-23T10:44:11;5.78;;;5.18;;
16346;SDS011;8283;48.504;13.734;2023-05-23T10:47:26;5.15;;;4.65;;
16346;SDS011;8283;48.504;13.734;2023-05-23T10:50:15;8.30;;;5.43;;
16346;SDS011;8283;48.504;13.734;2023-05-23T10:53:14;6.75;;;5.88;;
16346;SDS011;8283;48.504;13.734;2023-05-23T10:55:59;5.43;;;5.03;;
16346;SDS011;8283;48.504;13.734;2023-05-23T10:58:44;5.78;;;5.25;;
16346;SDS011;8283;48.504;13.734;2023-05-23T11:01:28;6.65;;;5.60;;
16346;SDS011;8283;48.504;13.734;2023-05-23T11:04:13;5.90;;;5.40;;
16346;SDS011;8283;48.504;13.734;2023-05-23T11:06:57;5.90;;;5.30;;
16346;SDS011;8283;48.504;13.734;2023-05-23T11:10:01;7.05;;;5.70;;
16346;SDS011;8283;48.504;13.734;2023-05-23T11:12:46;6.25;;;5.65;;
16346;SDS011;8283;48.504;13.734;2023-05-23T11:15:40;6.30;;;5.38;;
16346;SDS011;8283;48.504;13.734;2023-05-23T11:18:26;8.63;;;5.55;;
16346;SDS011;8283;48.504;13.734;2023-05-23T11:21:10;9.38;;;5.38;;
16346;SDS011;8283;48.504;13.734;2023-05-23T11:23:55;7.53;;;4.88;;
16346;SDS011;8283;48.504;13.734;2023-05-23T11:26:39;5.57;;;5.07;;
16346;SDS011;8283;48.504;13.734;2023-05-23T11:29:43;5.63;;;5.13;;
16346;SDS011;8283;48.504;13.734;2023-05-23T11:32:29;6.70;;;5.88;;
16346;SDS011;8283;48.504;13.734;2023-05-23T11:35:14;5.90;;;5.30;;
16346;SDS011;8283;48.504;13.734;2023-05-23T11:37:59;6.10;;;5.15;;
16346;SDS011;8283;48.504;13.734;2023-05-23T11:40:46;6.47;;;5.82;;
16346;SDS011;8283;48.504;13.734;2023-05-23T11:43:31;5.93;;;5.43;;
16346;SDS011;8283;48.504;13.734;2023-05-23T11:46:15;6.45;;;5.85;;
16346;SDS011;8283;48.504;13.734;2023-05-23T11:49:00;7.43;;;6.70;;
16346;SDS011;8283;48.504;13.734;2023-05-23T11:51:44;8.20;;;7.00;;
16346;SDS011;8283;48.504;13.734;2023-05-23T11:54:28;11.38;;;7.60;;
16346;SDS011;8283;48.504;13.734;2023-05-23T11:57:13;7.35;;;5.35;;
16346;SDS011;8283;48.504;13.734;2023-05-23T11:59:58;6.40;;;5.60;;
16346;SDS011;8283;48.504;13.734;2023-05-23T12:02:43;6.65;;;4.97;;
16346;SDS011;8283;48.504;13.734;2023-05-23T12:05:29;6.00;;;4.63;;
16346;SDS011;8283;48.504;13.734;2023-05-23T12:08:13;6.97;;;4.80;;
16346;SDS011;8283;48.504;13.734;2023-05-23T12:10:58;5.47;;;4.78;;
16346;SDS011;8283;48.504;13.734;2023-05-23T12:13:44;5.95;;;4.50;;
16346;SDS011;8283;48.504;13.734;2023-05-23T12:16:28;5.82;;;4.55;;
16346;SDS011;8283;48.504;13.734;2023-05-23T12:19:14;4.53;;;4.13;;
16346;SDS011;8283;48.504;13.734;2023-05-23T12:22:04;26.15;;;5.53;;
16346;SDS011;8283;48.504;13.734;2023-05-23T12:24:52;4.97;;;4.47;;
16346;SDS011;8283;48.504;13.734;2023-05-23T12:27:40;4.65;;;4.13;;
16346;SDS011;8283;48.504;13.734;2023-05-23T12:30:27;4.20;;;3.88;;
16346;SDS011;8283;48.504;13.734;2023-05-23T12:33:12;7.20;;;5.00;;
16346;SDS011;8283;48.504;13.734;2023-05-23T12:35:56;4.97;;;4.25;;
16346;SDS011;8283;48.504;13.734;2023-05-23T12:38:40;5.20;;;4.70;;
16346;SDS011;8283;48.504;13.734;2023-05-23T12:41:28;4.43;;;4.03;;
16346;SDS011;8283;48.504;13.734;2023-05-23T12:44:14;8.68;;;4.20;;
16346;SDS011;8283;48.504;13.734;2023-05-23T12:46:59;4.43;;;3.80;;
16346;SDS011;8283;48.504;13.734;2023-05-23T12:49:43;4.05;;;3.70;;
16346;SDS011;8283;48.504;13.734;2023-05-23T12:52:29;4.50;;;4.05;;
16346;SDS011;8283;48.504;13.734;2023-05-23T12:55:13;5.20;;;4.28;;
16346;SDS011;8283;48.504;13.734;2023-05-23T12:57:58;5.15;;;4.00;;
16346;SDS011;8283;48.504;13.734;2023-05-23T13:00:42;4.60;;;3.83;;
16346;SDS011;8283;48.504;13.734;2023-05-23T13:03:26;4.80;;;4.35;;
16346;SDS011;8283;48.504;13.734;2023-05-23T13:06:14;6.25;;;3.88;;
16346;SDS011;8283;48.504;13.734;2023-05-23T13:08:58;6.30;;;4.07;;
16346;SDS011;8283;48.504;13.734;2023-05-23T13:11:42;4.38;;;3.83;;
16346;SDS011;8283;48.504;13.734;2023-05-23T13:14:27;6.07;;;4.32;;
16346;SDS011;8283;48.504;13.734;2023-05-23T13:17:11;4.28;;;3.88;;
16346;SDS011;8283;48.504;13.734;2023-05-23T13:19:55;3.92;;;3.53;;
16346;SDS011;8283;48.504;13.734;2023-05-23T13:22:40;4.93;;;4.05;;
16346;SDS011;8283;48.504;13.734;2023-05-23T13:25:24;8.00;;;4.18;;
16346;SDS011;8283;48.504;13.734;2023-05-23T13:28:09;6.15;;;3.97;;
16346;SDS011;8283;48.504;13.734;2023-05-23T13:30:54;5.45;;;3.97;;
16346;SDS011;8283;48.504;13.734;2023-05-23T13:33:38;5.30;;;3.50;;
16346;SDS011;8283;48.504;13.734;2023-05-23T13:36:23;5.60;;;4.53;;
16346;SDS011;8283;48.504;13.734;2023-05-23T13:39:08;5.82;;;4.03;;
16346;SDS011;8283;48.504;13.734;2023-05-23T13:41:52;4.25;;;3.85;;
16346;SDS011;8283;48.504;13.734;2023-05-23T13:44:37;5.07;;;3.92;;
16346;SDS011;8283;48.504;13.734;2023-05-23T13:47:21;5.47;;;4.47;;
16346;SDS011;8283;48.504;13.734;2023-05-23T13:50:06;4.60;;;4.20;;
16346;SDS011;8283;48.504;13.734;2023-05-23T13:52:51;4.80;;;4.30;;
16346;SDS011;8283;48.504;13.734;2023-05-23T13:55:35;6.78;;;4.80;;
16346;SDS011;8283;48.504;13.734;2023-05-23T13:58:20;15.32;;;5.22;;
16346;SDS011;8283;48.504;13.734;2023-05-23T14:01:04;7.75;;;4.85;;
16346;SDS011;8283;48.504;13.734;2023-05-23T14:03:48;5.20;;;4.40;;
16346;SDS011;8283;48.504;13.734;2023-05-23T14:06:32;6.13;;;4.88;;
16346;SDS011;8283;48.504;13.734;2023-05-23T14:09:16;4.88;;;4.47;;
16346;SDS011;8283;48.504;13.734;2023-05-23T14:12:01;8.85;;;4.78;;
16346;SDS011;8283;48.504;13.734;2023-05-23T14:14:45;5.30;;;4.80;;
16346;SDS011;8283;48.504;13.734;2023-05-23T14:17:29;6.78;;;4.75;;
16346;SDS011;8283;48.504;13.734;2023-05-23T14:20:13;7.40;;;4.53;;
16346;SDS011;8283;48.504;13.734;2023-05-23T14:22:57;5.50;;;4.43;;
16346;SDS011;8283;48.504;13.734;2023-05-23T14:25:42;4.53;;;4.13;;
16346;SDS011;8283;48.504;13.734;2023-05-23T14:28:26;5.25;;;4.40;;
16346;SDS011;8283;48.504;13.734;2023-05-23T14:31:10;5.47;;;4.63;;
16346;SDS011;8283;48.504;13.734;2023-05-23T14:33:55;6.43;;;4.65;;
16346;SDS011;8283;48.504;13.734;2023-05-23T14:36:40;5.15;;;4.47;;
16346;SDS011;8283;48.504;13.734;2023-05-23T14:39:24;6.63;;;4.90;;
16346;SDS011;8283;48.504;13.734;2023-05-23T14:42:08;5.57;;;4.53;;
16346;SDS011;8283;48.504;13.734;2023-05-23T14:44:53;4.97;;;4.47;;
16346;SDS011;8283;48.504;13.734;2023-05-23T14:47:37;7.05;;;4.80;;
16346;SDS011;8283;48.504;13.734;2023-05-23T14:50:21;5.95;;;4.80;;
16346;SDS011;8283;48.504;13.734;2023-05-23T14:53:05;4.95;;;4.32;;
16346;SDS011;8283;48.504;13.734;2023-05-23T14:55:50;8.00;;;4.68;;
16346;SDS011;8283;48.504;13.734;2023-05-23T14:58:34;6.93;;;5.18;;
16346;SDS011;8283;48.504;13.734;2023-05-23T15:01:18;5.68;;;4.88;;
16346;SDS011;8283;48.504;13.734;2023-05-23T15:04:02;6.90;;;4.70;;
16346;SDS011;8283;48.504;13.734;2023-05-23T15:06:48;8.60;;;4.93;;
16346;SDS011;8283;48.504;13.734;2023-05-23T15:09:33;10.07;;;4.95;;
16346;SDS011;8283;48.504;13.734;2023-05-23T15:12:18;5.80;;;4.63;;
16346;SDS011;8283;48.504;13.734;2023-05-23T15:15:03;5.38;;;4.55;;
16346;SDS011;8283;48.504;13.734;2023-05-23T15:17:49;5.80;;;4.80;;
16346;SDS011;8283;48.504;13.734;2023-05-23T15:20:34;4.85;;;4.35;;
16346;SDS011;8283;48.504;13.734;2023-05-23T15:23:21;4.80;;;4.40;;
16346;SDS011;8283;48.504;13.734;2023-05-23T15:26:05;5.70;;;5.10;;
16346;SDS011;8283;48.504;13.734;2023-05-23T15:28:50;5.10;;;4.43;;
16346;SDS011;8283;48.504;13.734;2023-05-23T15:31:34;5.82;;;5.15;;
16346;SDS011;8283;48.504;13.734;2023-05-23T15:34:18;7.60;;;4.68;;
16346;SDS011;8283;48.504;13.734;2023-05-23T15:37:03;7.90;;;5.10;;
16346;SDS011;8283;48.504;13.734;2023-05-23T15:39:48;5.97;;;4.65;;
16346;SDS011;8283;48.504;13.734;2023-05-23T15:42:33;7.00;;;4.63;;
16346;SDS011;8283;48.504;13.734;2023-05-23T15:45:18;5.53;;;4.50;;
16346;SDS011;8283;48.504;13.734;2023-05-23T15:48:03;5.22;;;4.57;;
16346;SDS011;8283;48.504;13.734;2023-05-23T15:50:47;5.10;;;4.50;;
16346;SDS011;8283;48.504;13.734;2023-05-23T15:53:31;5.10;;;4.60;;
16346;SDS011;8283;48.504;13.734;2023-05-23T15:56:15;5.20;;;3.97;;
16346;SDS011;8283;48.504;13.734;2023-05-23T15:59:00;6.35;;;4.97;;
16346;SDS011;8283;48.504;13.734;2023-05-23T16:01:44;5.43;;;4.57;;
16346;SDS011;8283;48.504;13.734;2023-05-23T16:04:29;5.70;;;4.30;;
16346;SDS011;8283;48.504;13.734;2023-05-23T16:07:13;5.07;;;4.00;;
16346;SDS011;8283;48.504;13.734;2023-05-23T16:09:58;7.97;;;5.38;;
16346;SDS011;8283;48.504;13.734;2023-05-23T16:12:42;9.27;;;8.30;;
16346;SDS011;8283;48.504;13.734;2023-05-23T16:15:26;7.57;;;5.00;;
16346;SDS011;8283;48.504;13.734;2023-05-23T16:18:10;6.78;;;5.05;;
16346;SDS011;8283;48.504;13.734;2023-05-23T16:20:54;6.03;;;4.20;;
16346;SDS011;8283;48.504;13.734;2023-05-23T16:23:39;5.45;;;4.45;;
16346;SDS011;8283;48.504;13.734;2023-05-23T16:26:24;6.90;;;5.32;;
16346;SDS011;8283;48.504;13.734;2023-05-23T16:29:09;12.20;;;8.65;;
16346;SDS011;8283;48.504;13.734;2023-05-23T16:31:55;4.93;;;3.80;;
16346;SDS011;8283;48.504;13.734;2023-05-23T16:34:39;4.32;;;3.92;;
16346;SDS011;8283;48.504;13.734;2023-05-23T16:37:23;4.43;;;3.65;;
16346;SDS011;8283;48.504;13.734;2023-05-23T16:40:07;5.60;;;3.63;;
16346;SDS011;8283;48.504;13.734;2023-05-23T16:42:52;5.57;;;3.78;;
16346;SDS011;8283;48.504;13.734;2023-05-23T16:45:36;6.38;;;5.53;;
16346;SDS011;8283;48.504;13.734;2023-05-23T16:48:21;5.15;;;4.65;;